Airfield :
LOGIN :

Register | Disclaimer

   EN    FR    IT 

 










Legend :    VFR   Marginal VFR   IFR   Intensive IFR   Very Intensive IFR
Visi :
Ceiling :
>= 8 km
>= 3000ft
5 to 8 km
1000 to 3000 ft
1500m to 5 km
500 to 1000 ft
800 to 1500m
200 to 500 ft
< 800m
< 200 ft
Symbols :   Thunderstorms  Fog  Heavy snow  Heavy precipitations  Wind > 20 kt
SIGMETs :     Misc.  Thunderstorms  Icing  Turbulence  Mountain Waves  Volcanic Ashes







- Airport Elevation : 161 ft
- IATA code : TKU


EFTU - Turku

CURRENT METAR :
  • 190850Z AUTO 20006KT 1900 RA BR OVC002/// 03/02 Q0998

EXPIRED METARs :
  • 190820Z AUTO 20007KT 2400 -RA BR OVC003/// 03/03 Q0999
  • 190750Z AUTO 21006KT 3900 DZ OVC004/// 03/02 Q0999
  • 190720Z AUTO 22007KT 4600 DZ OVC004/// 03/02 Q1000
  • 190650Z AUTO 22008KT 5000 BR OVC005/// 03/02 Q1000
  • 190620Z AUTO 22008KT 6000 OVC005/// 03/02 Q1000
  • 190550Z AUTO 22008KT 7000 BKN005/// OVC081/// 03/02 Q1000

TAF TAF EFTU
Valid from the 19 at 09:00 until the 20 at 09:00 UTC


190828Z 1909/2009 20007KT 2500 BR OVC003
TEMPO 1909/1915 6000 NSW BKN005
BECMG 1915/1917 6000 NSW BKN012
PROB30
TEMPO 1916/1920 5000 -SHRA SCT012 FEW030CB
TEMPO 1920/2008 2000 BR BKN004
No reported NOTAMs for that airfield.



MET'MAP, your aeronautical weather chart ! - Copyright ORBIFLY December 2007 - Disclaimer

ORBIFLY MET'MAP TEAM :

Programming & Development : Alexandra Zaïnal
Concept & Development : Baudouin d'Aumeries
Co-Development & Prog : Marc-Olivier Méhu
Technical & hardware support : Manuel Goepfert

Contact : metmap@orbifly.com




SOURCES & CREDITS :

   NOAA